sensor_id;sensor_type;location;lat;lon;timestamp;temperature;humidity
23291;DHT22;11814;44.686;10.842;2023-04-25T00:01:08;13.50;99.20
23291;DHT22;11814;44.686;10.842;2023-04-25T00:03:34;13.50;99.90
23291;DHT22;11814;44.686;10.842;2023-04-25T00:06:00;13.40;99.90
23291;DHT22;11814;44.686;10.842;2023-04-25T00:08:31;13.40;99.90
23291;DHT22;11814;44.686;10.842;2023-04-25T00:10:57;13.40;99.90
23291;DHT22;11814;44.686;10.842;2023-04-25T00:13:23;13.40;99.90
23291;DHT22;11814;44.686;10.842;2023-04-25T00:15:51;13.40;99.90
23291;DHT22;11814;44.686;10.842;2023-04-25T00:18:19;13.30;99.90
23291;DHT22;11814;44.686;10.842;2023-04-25T00:20:44;13.40;99.90
23291;DHT22;11814;44.686;10.842;2023-04-25T00:23:16;13.30;99.90
23291;DHT22;11814;44.686;10.842;2023-04-25T00:25:47;13.20;99.90
23291;DHT22;11814;44.686;10.842;2023-04-25T00:28:14;13.20;99.90
23291;DHT22;11814;44.686;10.842;2023-04-25T00:30:42;13.20;99.90
23291;DHT22;11814;44.686;10.842;2023-04-25T00:33:09;13.20;99.90
23291;DHT22;11814;44.686;10.842;2023-04-25T00:35:35;13.20;99.90
23291;DHT22;11814;44.686;10.842;2023-04-25T00:38:01;13.30;99.90
23291;DHT22;11814;44.686;10.842;2023-04-25T00:40:27;13.20;99.90
23291;DHT22;11814;44.686;10.842;2023-04-25T00:42:53;13.10;99.90
23291;DHT22;11814;44.686;10.842;2023-04-25T00:45:19;13.10;99.90
23291;DHT22;11814;44.686;10.842;2023-04-25T00:47:46;13.10;99.90
23291;DHT22;11814;44.686;10.842;2023-04-25T00:50:13;13.20;99.90
23291;DHT22;11814;44.686;10.842;2023-04-25T00:52:41;13.30;99.90
23291;DHT22;11814;44.686;10.842;2023-04-25T00:55:09;13.30;99.90
23291;DHT22;11814;44.686;10.842;2023-04-25T00:57:35;13.30;99.90
23291;DHT22;11814;44.686;10.842;2023-04-25T01:00:02;13.30;99.90
23291;DHT22;11814;44.686;10.842;2023-04-25T01:02:29;13.40;99.90
23291;DHT22;11814;44.686;10.842;2023-04-25T01:04:55;13.40;99.90
23291;DHT22;11814;44.686;10.842;2023-04-25T01:07:21;13.40;99.90
23291;DHT22;11814;44.686;10.842;2023-04-25T01:09:46;13.40;99.90
23291;DHT22;11814;44.686;10.842;2023-04-25T01:12:12;13.40;99.90
23291;DHT22;11814;44.686;10.842;2023-04-25T01:14:38;13.50;99.90
23291;DHT22;11814;44.686;10.842;2023-04-25T01:17:04;13.40;99.90
23291;DHT22;11814;44.686;10.842;2023-04-25T01:19:30;13.40;99.90
23291;DHT22;11814;44.686;10.842;2023-04-25T01:21:56;13.40;99.90
23291;DHT22;11814;44.686;10.842;2023-04-25T01:24:22;13.40;99.90
23291;DHT22;11814;44.686;10.842;2023-04-25T01:26:48;13.30;99.90
23291;DHT22;11814;44.686;10.842;2023-04-25T01:29:19;13.30;99.90
23291;DHT22;11814;44.686;10.842;2023-04-25T01:31:45;13.40;99.90
23291;DHT22;11814;44.686;10.842;2023-04-25T01:34:12;13.20;99.90
23291;DHT22;11814;44.686;10.842;2023-04-25T01:36:39;13.20;99.90
23291;DHT22;11814;44.686;10.842;2023-04-25T01:39:05;13.20;99.90
23291;DHT22;11814;44.686;10.842;2023-04-25T01:41:31;13.10;99.90
23291;DHT22;11814;44.686;10.842;2023-04-25T01:43:57;13.10;99.90
23291;DHT22;11814;44.686;10.842;2023-04-25T01:46:23;13.10;99.90
23291;DHT22;11814;44.686;10.842;2023-04-25T01:48:49;13.00;99.90
23291;DHT22;11814;44.686;10.842;2023-04-25T01:51:15;13.00;99.90
23291;DHT22;11814;44.686;10.842;2023-04-25T01:53:42;12.90;99.90
23291;DHT22;11814;44.686;10.842;2023-04-25T01:56:08;12.80;99.90
23291;DHT22;11814;44.686;10.842;2023-04-25T01:58:34;12.80;99.90
23291;DHT22;11814;44.686;10.842;2023-04-25T02:00:59;12.70;99.90
23291;DHT22;11814;44.686;10.842;2023-04-25T02:03:25;12.60;99.90
23291;DHT22;11814;44.686;10.842;2023-04-25T02:05:51;12.50;99.90
23291;DHT22;11814;44.686;10.842;2023-04-25T02:08:17;12.40;99.90
23291;DHT22;11814;44.686;10.842;2023-04-25T02:10:43;12.40;99.90
23291;DHT22;11814;44.686;10.842;2023-04-25T02:13:09;12.40;99.90
23291;DHT22;11814;44.686;10.842;2023-04-25T02:15:35;12.30;99.90
23291;DHT22;11814;44.686;10.842;2023-04-25T02:18:01;12.40;99.90
23291;DHT22;11814;44.686;10.842;2023-04-25T02:20:28;12.40;99.90
23291;DHT22;11814;44.686;10.842;2023-04-25T02:22:54;12.40;99.90
23291;DHT22;11814;44.686;10.842;2023-04-25T02:25:20;12.40;99.90
23291;DHT22;11814;44.686;10.842;2023-04-25T02:27:47;12.40;99.90
23291;DHT22;11814;44.686;10.842;2023-04-25T02:30:13;12.40;99.90
23291;DHT22;11814;44.686;10.842;2023-04-25T02:32:39;12.30;99.90
23291;DHT22;11814;44.686;10.842;2023-04-25T02:35:06;12.30;99.90
23291;DHT22;11814;44.686;10.842;2023-04-25T02:37:36;12.20;99.90
23291;DHT22;11814;44.686;10.842;2023-04-25T02:40:02;12.10;99.90
23291;DHT22;11814;44.686;10.842;2023-04-25T02:42:30;12.10;99.90
23291;DHT22;11814;44.686;10.842;2023-04-25T02:44:56;12.00;99.90
23291;DHT22;11814;44.686;10.842;2023-04-25T02:47:22;12.00;99.90
23291;DHT22;11814;44.686;10.842;2023-04-25T02:49:48;11.90;99.90
23291;DHT22;11814;44.686;10.842;2023-04-25T02:52:13;11.90;99.90
23291;DHT22;11814;44.686;10.842;2023-04-25T02:54:40;11.80;99.90
23291;DHT22;11814;44.686;10.842;2023-04-25T02:57:06;11.80;99.90
23291;DHT22;11814;44.686;10.842;2023-04-25T02:59:32;11.70;99.90
23291;DHT22;11814;44.686;10.842;2023-04-25T03:01:58;11.80;99.90
23291;DHT22;11814;44.686;10.842;2023-04-25T03:04:24;11.70;99.90
23291;DHT22;11814;44.686;10.842;2023-04-25T03:06:50;11.60;99.90
23291;DHT22;11814;44.686;10.842;2023-04-25T03:09:17;11.60;99.90
23291;DHT22;11814;44.686;10.842;2023-04-25T03:11:44;11.60;99.90
23291;DHT22;11814;44.686;10.842;2023-04-25T03:14:10;11.60;99.90
23291;DHT22;11814;44.686;10.842;2023-04-25T03:16:36;11.60;99.90
23291;DHT22;11814;44.686;10.842;2023-04-25T03:19:03;11.60;99.90
23291;DHT22;11814;44.686;10.842;2023-04-25T03:21:29;11.60;99.90
23291;DHT22;11814;44.686;10.842;2023-04-25T03:23:57;11.50;99.90
23291;DHT22;11814;44.686;10.842;2023-04-25T03:26:23;11.50;99.90
23291;DHT22;11814;44.686;10.842;2023-04-25T03:28:49;11.60;99.90
23291;DHT22;11814;44.686;10.842;2023-04-25T03:31:15;11.60;99.90
23291;DHT22;11814;44.686;10.842;2023-04-25T03:33:40;11.50;99.90
23291;DHT22;11814;44.686;10.842;2023-04-25T03:36:06;11.50;99.90
23291;DHT22;11814;44.686;10.842;2023-04-25T03:38:32;11.40;99.90
23291;DHT22;11814;44.686;10.842;2023-04-25T03:40:58;11.40;99.90
23291;DHT22;11814;44.686;10.842;2023-04-25T03:43:24;11.40;99.90
23291;DHT22;11814;44.686;10.842;2023-04-25T03:45:50;11.40;99.90
23291;DHT22;11814;44.686;10.842;2023-04-25T03:48:16;11.40;99.90
23291;DHT22;11814;44.686;10.842;2023-04-25T03:50:42;11.40;99.90
23291;DHT22;11814;44.686;10.842;2023-04-25T03:53:07;11.40;99.90
23291;DHT22;11814;44.686;10.842;2023-04-25T03:55:33;11.30;99.90
23291;DHT22;11814;44.686;10.842;2023-04-25T03:57:59;11.30;99.90
23291;DHT22;11814;44.686;10.842;2023-04-25T04:00:25;11.30;99.90
23291;DHT22;11814;44.686;10.842;2023-04-25T04:02:51;11.40;99.90
23291;DHT22;11814;44.686;10.842;2023-04-25T04:05:17;11.40;99.90
23291;DHT22;11814;44.686;10.842;2023-04-25T04:07:42;11.50;99.90
23291;DHT22;11814;44.686;10.842;2023-04-25T04:10:09;11.60;99.90
23291;DHT22;11814;44.686;10.842;2023-04-25T04:12:35;11.60;99.90
23291;DHT22;11814;44.686;10.842;2023-04-25T04:15:05;11.50;99.90
23291;DHT22;11814;44.686;10.842;2023-04-25T04:17:33;11.50;99.90
23291;DHT22;11814;44.686;10.842;2023-04-25T04:19:59;11.50;99.90
23291;DHT22;11814;44.686;10.842;2023-04-25T04:22:25;11.50;99.90
23291;DHT22;11814;44.686;10.842;2023-04-25T04:24:51;11.50;99.90
23291;DHT22;11814;44.686;10.842;2023-04-25T04:27:21;11.50;99.90
23291;DHT22;11814;44.686;10.842;2023-04-25T04:29:47;11.50;99.90
23291;DHT22;11814;44.686;10.842;2023-04-25T04:32:14;11.50;99.90
23291;DHT22;11814;44.686;10.842;2023-04-25T04:34:39;11.40;99.90
23291;DHT22;11814;44.686;10.842;2023-04-25T04:37:07;11.40;99.90
23291;DHT22;11814;44.686;10.842;2023-04-25T04:39:33;11.30;99.90
23291;DHT22;11814;44.686;10.842;2023-04-25T04:41:59;11.30;99.90
23291;DHT22;11814;44.686;10.842;2023-04-25T04:44:27;11.30;99.90
23291;DHT22;11814;44.686;10.842;2023-04-25T04:46:54;11.30;99.90
23291;DHT22;11814;44.686;10.842;2023-04-25T04:49:20;11.40;99.90
23291;DHT22;11814;44.686;10.842;2023-04-25T04:51:46;11.40;99.90
23291;DHT22;11814;44.686;10.842;2023-04-25T04:54:12;11.50;99.90
23291;DHT22;11814;44.686;10.842;2023-04-25T04:56:38;11.60;99.90
23291;DHT22;11814;44.686;10.842;2023-04-25T04:59:04;11.50;99.90
23291;DHT22;11814;44.686;10.842;2023-04-25T05:01:30;11.60;99.90
23291;DHT22;11814;44.686;10.842;2023-04-25T05:03:56;11.60;99.90
23291;DHT22;11814;44.686;10.842;2023-04-25T05:06:28;11.60;99.90
23291;DHT22;11814;44.686;10.842;2023-04-25T05:08:55;11.60;99.90
23291;DHT22;11814;44.686;10.842;2023-04-25T05:11:22;11.60;99.90
23291;DHT22;11814;44.686;10.842;2023-04-25T05:13:47;11.60;99.90
23291;DHT22;11814;44.686;10.842;2023-04-25T05:16:13;11.60;99.90
23291;DHT22;11814;44.686;10.842;2023-04-25T05:18:40;11.60;99.90
23291;DHT22;11814;44.686;10.842;2023-04-25T05:21:06;11.60;99.90
23291;DHT22;11814;44.686;10.842;2023-04-25T05:23:33;11.70;99.90
23291;DHT22;11814;44.686;10.842;2023-04-25T05:25:59;11.80;99.90
23291;DHT22;11814;44.686;10.842;2023-04-25T05:28:25;11.80;99.90
23291;DHT22;11814;44.686;10.842;2023-04-25T05:30:51;11.80;99.90
23291;DHT22;11814;44.686;10.842;2023-04-25T05:33:16;12.00;99.90
23291;DHT22;11814;44.686;10.842;2023-04-25T05:35:42;11.90;99.90
23291;DHT22;11814;44.686;10.842;2023-04-25T05:38:08;11.90;99.90
23291;DHT22;11814;44.686;10.842;2023-04-25T05:40:34;11.90;99.90
23291;DHT22;11814;44.686;10.842;2023-04-25T05:43:00;11.90;99.90
23291;DHT22;11814;44.686;10.842;2023-04-25T05:45:26;11.90;99.90
23291;DHT22;11814;44.686;10.842;2023-04-25T05:47:51;12.00;99.90
23291;DHT22;11814;44.686;10.842;2023-04-25T05:50:17;12.10;99.90
23291;DHT22;11814;44.686;10.842;2023-04-25T05:52:43;12.10;99.90
23291;DHT22;11814;44.686;10.842;2023-04-25T05:55:09;12.30;99.90
23291;DHT22;11814;44.686;10.842;2023-04-25T05:57:34;12.30;99.90
23291;DHT22;11814;44.686;10.842;2023-04-25T06:00:00;12.40;99.90
23291;DHT22;11814;44.686;10.842;2023-04-25T06:02:26;12.40;99.90
23291;DHT22;11814;44.686;10.842;2023-04-25T06:04:52;12.40;99.90
23291;DHT22;11814;44.686;10.842;2023-04-25T06:07:19;12.50;99.90
23291;DHT22;11814;44.686;10.842;2023-04-25T06:09:45;12.60;99.90
23291;DHT22;11814;44.686;10.842;2023-04-25T06:12:11;13.10;99.90
23291;DHT22;11814;44.686;10.842;2023-04-25T06:14:37;14.00;99.90
23291;DHT22;11814;44.686;10.842;2023-04-25T06:17:03;14.30;99.90
23291;DHT22;11814;44.686;10.842;2023-04-25T06:19:36;14.20;99.90
23291;DHT22;11814;44.686;10.842;2023-04-25T06:22:02;14.10;99.90
23291;DHT22;11814;44.686;10.842;2023-04-25T06:24:28;13.90;99.90
23291;DHT22;11814;44.686;10.842;2023-04-25T06:26:54;13.80;99.90
23291;DHT22;11814;44.686;10.842;2023-04-25T06:29:20;13.90;99.90
23291;DHT22;11814;44.686;10.842;2023-04-25T06:31:46;14.10;99.90
23291;DHT22;11814;44.686;10.842;2023-04-25T06:34:12;14.20;99.90
23291;DHT22;11814;44.686;10.842;2023-04-25T06:36:37;14.20;99.90
23291;DHT22;11814;44.686;10.842;2023-04-25T06:39:03;14.20;99.90
23291;DHT22;11814;44.686;10.842;2023-04-25T06:41:29;14.20;99.90
23291;DHT22;11814;44.686;10.842;2023-04-25T06:43:55;14.20;99.90
23291;DHT22;11814;44.686;10.842;2023-04-25T06:46:20;14.50;99.90
23291;DHT22;11814;44.686;10.842;2023-04-25T06:48:46;15.10;99.90
23291;DHT22;11814;44.686;10.842;2023-04-25T06:51:12;15.60;99.90
23291;DHT22;11814;44.686;10.842;2023-04-25T06:53:39;15.60;99.90
23291;DHT22;11814;44.686;10.842;2023-04-25T06:56:05;15.60;99.90
23291;DHT22;11814;44.686;10.842;2023-04-25T06:58:31;15.40;99.90
23291;DHT22;11814;44.686;10.842;2023-04-25T07:00:57;15.20;99.90
23291;DHT22;11814;44.686;10.842;2023-04-25T07:03:23;15.10;99.90
23291;DHT22;11814;44.686;10.842;2023-04-25T07:05:49;15.10;99.90
23291;DHT22;11814;44.686;10.842;2023-04-25T07:08:16;15.10;99.90
23291;DHT22;11814;44.686;10.842;2023-04-25T07:10:42;15.10;99.90
23291;DHT22;11814;44.686;10.842;2023-04-25T07:13:08;15.00;99.90
23291;DHT22;11814;44.686;10.842;2023-04-25T07:15:33;14.90;99.90
23291;DHT22;11814;44.686;10.842;2023-04-25T07:17:59;14.80;99.90
23291;DHT22;11814;44.686;10.842;2023-04-25T07:20:25;14.80;99.90
23291;DHT22;11814;44.686;10.842;2023-04-25T07:22:53;14.80;99.90
23291;DHT22;11814;44.686;10.842;2023-04-25T07:25:19;14.70;99.90
23291;DHT22;11814;44.686;10.842;2023-04-25T07:27:45;14.70;99.90
23291;DHT22;11814;44.686;10.842;2023-04-25T07:30:11;14.60;99.90
23291;DHT22;11814;44.686;10.842;2023-04-25T07:32:38;14.60;99.90
23291;DHT22;11814;44.686;10.842;2023-04-25T07:35:04;14.50;99.90
23291;DHT22;11814;44.686;10.842;2023-04-25T07:37:32;14.50;99.90
23291;DHT22;11814;44.686;10.842;2023-04-25T07:39:58;14.50;99.90
23291;DHT22;11814;44.686;10.842;2023-04-25T07:42:24;14.40;99.90
23291;DHT22;11814;44.686;10.842;2023-04-25T07:44:50;14.40;99.90
23291;DHT22;11814;44.686;10.842;2023-04-25T07:47:17;14.40;99.90
23291;DHT22;11814;44.686;10.842;2023-04-25T07:49:44;14.40;99.90
23291;DHT22;11814;44.686;10.842;2023-04-25T07:52:11;14.40;99.90
23291;DHT22;11814;44.686;10.842;2023-04-25T07:54:37;14.30;99.90
23291;DHT22;11814;44.686;10.842;2023-04-25T07:57:02;14.20;99.90
23291;DHT22;11814;44.686;10.842;2023-04-25T07:59:28;14.20;99.90
23291;DHT22;11814;44.686;10.842;2023-04-25T08:01:54;14.30;99.90
23291;DHT22;11814;44.686;10.842;2023-04-25T08:04:20;14.30;99.90
23291;DHT22;11814;44.686;10.842;2023-04-25T08:06:46;14.30;99.90
23291;DHT22;11814;44.686;10.842;2023-04-25T08:09:12;14.30;99.90
23291;DHT22;11814;44.686;10.842;2023-04-25T08:11:37;14.30;99.90
23291;DHT22;11814;44.686;10.842;2023-04-25T08:14:05;14.30;99.90
23291;DHT22;11814;44.686;10.842;2023-04-25T08:16:31;14.50;99.90
23291;DHT22;11814;44.686;10.842;2023-04-25T08:18:56;14.60;99.90
23291;DHT22;11814;44.686;10.842;2023-04-25T08:21:22;14.70;99.90
23291;DHT22;11814;44.686;10.842;2023-04-25T08:23:48;14.80;99.90
23291;DHT22;11814;44.686;10.842;2023-04-25T08:26:13;14.80;99.90
23291;DHT22;11814;44.686;10.842;2023-04-25T08:28:39;14.80;99.90
23291;DHT22;11814;44.686;10.842;2023-04-25T08:31:05;14.70;99.90
23291;DHT22;11814;44.686;10.842;2023-04-25T08:33:30;14.60;99.90
23291;DHT22;11814;44.686;10.842;2023-04-25T08:35:57;14.60;99.90
23291;DHT22;11814;44.686;10.842;2023-04-25T08:38:23;14.50;99.90
23291;DHT22;11814;44.686;10.842;2023-04-25T08:40:50;14.60;99.90
23291;DHT22;11814;44.686;10.842;2023-04-25T08:43:20;14.60;99.90
23291;DHT22;11814;44.686;10.842;2023-04-25T08:45:46;14.60;99.90
23291;DHT22;11814;44.686;10.842;2023-04-25T08:48:14;14.70;99.90
23291;DHT22;11814;44.686;10.842;2023-04-25T08:51:01;14.70;99.90
23291;DHT22;11814;44.686;10.842;2023-04-25T08:53:32;14.70;99.90
23291;DHT22;11814;44.686;10.842;2023-04-25T08:55:59;14.80;99.90
23291;DHT22;11814;44.686;10.842;2023-04-25T08:58:27;14.80;99.90
23291;DHT22;11814;44.686;10.842;2023-04-25T09:00:53;14.90;99.90
23291;DHT22;11814;44.686;10.842;2023-04-25T09:03:19;15.00;99.90
23291;DHT22;11814;44.686;10.842;2023-04-25T09:05:45;15.10;99.90
23291;DHT22;11814;44.686;10.842;2023-04-25T09:08:11;15.20;99.90
23291;DHT22;11814;44.686;10.842;2023-04-25T09:10:37;15.20;99.90
23291;DHT22;11814;44.686;10.842;2023-04-25T09:13:11;15.30;99.90
23291;DHT22;11814;44.686;10.842;2023-04-25T09:15:51;15.40;99.10
23291;DHT22;11814;44.686;10.842;2023-04-25T09:18:32;15.50;98.10
23291;DHT22;11814;44.686;10.842;2023-04-25T09:21:08;15.50;97.00
23291;DHT22;11814;44.686;10.842;2023-04-25T09:23:46;15.60;96.60
23291;DHT22;11814;44.686;10.842;2023-04-25T09:26:20;15.70;96.50
23291;DHT22;11814;44.686;10.842;2023-04-25T09:28:46;15.90;96.00
23291;DHT22;11814;44.686;10.842;2023-04-25T09:31:21;16.00;95.60
23291;DHT22;11814;44.686;10.842;2023-04-25T09:33:47;16.10;94.50
23291;DHT22;11814;44.686;10.842;2023-04-25T09:36:13;16.20;94.20
23291;DHT22;11814;44.686;10.842;2023-04-25T09:38:44;16.20;94.10
23291;DHT22;11814;44.686;10.842;2023-04-25T09:41:10;16.40;93.50
23291;DHT22;11814;44.686;10.842;2023-04-25T09:43:37;16.40;92.90
23291;DHT22;11814;44.686;10.842;2023-04-25T09:46:04;16.30;92.70
23291;DHT22;11814;44.686;10.842;2023-04-25T09:48:33;16.40;92.80
23291;DHT22;11814;44.686;10.842;2023-04-25T09:51:11;16.50;92.50
23291;DHT22;11814;44.686;10.842;2023-04-25T09:53:40;16.60;92.60
23291;DHT22;11814;44.686;10.842;2023-04-25T09:56:08;16.80;92.00
23291;DHT22;11814;44.686;10.842;2023-04-25T09:58:36;16.80;91.90
23291;DHT22;11814;44.686;10.842;2023-04-25T10:01:04;17.00;91.80
23291;DHT22;11814;44.686;10.842;2023-04-25T10:03:32;17.00;91.40
23291;DHT22;11814;44.686;10.842;2023-04-25T10:06:03;16.90;90.90
23291;DHT22;11814;44.686;10.842;2023-04-25T10:08:35;17.00;90.90
23291;DHT22;11814;44.686;10.842;2023-04-25T10:11:06;17.00;90.70
23291;DHT22;11814;44.686;10.842;2023-04-25T10:13:33;17.00;90.40
23291;DHT22;11814;44.686;10.842;2023-04-25T10:16:01;17.00;89.60
23291;DHT22;11814;44.686;10.842;2023-04-25T10:18:28;16.90;88.70
23291;DHT22;11814;44.686;10.842;2023-04-25T10:21:00;16.90;88.20
23291;DHT22;11814;44.686;10.842;2023-04-25T10:23:26;16.90;88.60
23291;DHT22;11814;44.686;10.842;2023-04-25T10:25:53;17.00;88.50
23291;DHT22;11814;44.686;10.842;2023-04-25T10:28:20;17.20;88.60
23291;DHT22;11814;44.686;10.842;2023-04-25T10:31:03;17.20;88.40
23291;DHT22;11814;44.686;10.842;2023-04-25T10:33:37;17.30;87.20
23291;DHT22;11814;44.686;10.842;2023-04-25T10:36:22;17.40;87.90
23291;DHT22;11814;44.686;10.842;2023-04-25T10:38:49;17.40;87.40
23291;DHT22;11814;44.686;10.842;2023-04-25T10:41:20;17.50;86.90
23291;DHT22;11814;44.686;10.842;2023-04-25T10:43:48;17.60;86.00
23291;DHT22;11814;44.686;10.842;2023-04-25T10:46:22;17.80;85.60
23291;DHT22;11814;44.686;10.842;2023-04-25T10:48:56;17.90;84.50
23291;DHT22;11814;44.686;10.842;2023-04-25T10:51:24;18.00;83.20
23291;DHT22;11814;44.686;10.842;2023-04-25T11:01:37;18.30;82.20
23291;DHT22;11814;44.686;10.842;2023-04-25T11:04:03;18.30;82.30
23291;DHT22;11814;44.686;10.842;2023-04-25T11:06:51;18.40;81.70
23291;DHT22;11814;44.686;10.842;2023-04-25T11:09:24;18.30;81.10
23291;DHT22;11814;44.686;10.842;2023-04-25T11:11:57;18.30;81.60
23291;DHT22;11814;44.686;10.842;2023-04-25T11:14:24;18.40;81.10
23291;DHT22;11814;44.686;10.842;2023-04-25T11:16:54;18.40;80.90
23291;DHT22;11814;44.686;10.842;2023-04-25T11:19:21;18.30;80.40
23291;DHT22;11814;44.686;10.842;2023-04-25T11:21:47;18.30;81.10
23291;DHT22;11814;44.686;10.842;2023-04-25T11:24:12;18.50;81.60
23291;DHT22;11814;44.686;10.842;2023-04-25T11:26:41;18.60;80.90
23291;DHT22;11814;44.686;10.842;2023-04-25T11:29:07;18.60;80.40
23291;DHT22;11814;44.686;10.842;2023-04-25T11:31:33;18.70;80.20
23291;DHT22;11814;44.686;10.842;2023-04-25T11:33:58;18.70;79.70
23291;DHT22;11814;44.686;10.842;2023-04-25T11:36:26;18.80;79.30
23291;DHT22;11814;44.686;10.842;2023-04-25T11:38:52;18.80;78.90
23291;DHT22;11814;44.686;10.842;2023-04-25T11:41:19;18.80;78.90
23291;DHT22;11814;44.686;10.842;2023-04-25T11:43:48;18.80;78.70
23291;DHT22;11814;44.686;10.842;2023-04-25T11:46:15;18.80;78.50
23291;DHT22;11814;44.686;10.842;2023-04-25T11:48:42;18.80;78.10
23291;DHT22;11814;44.686;10.842;2023-04-25T11:51:08;18.90;77.80
23291;DHT22;11814;44.686;10.842;2023-04-25T11:53:34;18.80;77.30
23291;DHT22;11814;44.686;10.842;2023-04-25T11:56:01;18.80;77.00
23291;DHT22;11814;44.686;10.842;2023-04-25T11:58:28;18.90;76.80
23291;DHT22;11814;44.686;10.842;2023-04-25T12:00:53;19.00;76.60
23291;DHT22;11814;44.686;10.842;2023-04-25T12:03:19;19.10;75.80
23291;DHT22;11814;44.686;10.842;2023-04-25T12:05:46;19.30;75.70
23291;DHT22;11814;44.686;10.842;2023-04-25T12:08:13;19.30;75.10
23291;DHT22;11814;44.686;10.842;2023-04-25T12:10:41;19.20;75.30
23291;DHT22;11814;44.686;10.842;2023-04-25T12:13:26;19.00;75.20
23291;DHT22;11814;44.686;10.842;2023-04-25T12:15:56;19.00;75.60
23291;DHT22;11814;44.686;10.842;2023-04-25T12:18:25;19.10;75.50
23291;DHT22;11814;44.686;10.842;2023-04-25T12:20:53;19.20;75.70
23291;DHT22;11814;44.686;10.842;2023-04-25T12:23:26;19.40;75.30
23291;DHT22;11814;44.686;10.842;2023-04-25T12:25:52;19.40;75.20
23291;DHT22;11814;44.686;10.842;2023-04-25T12:28:20;19.20;75.40
23291;DHT22;11814;44.686;10.842;2023-04-25T12:31:07;18.90;75.80
23291;DHT22;11814;44.686;10.842;2023-04-25T12:33:35;18.60;76.60
23291;DHT22;11814;44.686;10.842;2023-04-25T12:36:02;18.40;77.20
23291;DHT22;11814;44.686;10.842;2023-04-25T12:38:39;18.30;78.00
23291;DHT22;11814;44.686;10.842;2023-04-25T12:41:06;18.30;78.50
23291;DHT22;11814;44.686;10.842;2023-04-25T12:43:32;18.40;78.50
23291;DHT22;11814;44.686;10.842;2023-04-25T12:45:58;18.50;78.40
23291;DHT22;11814;44.686;10.842;2023-04-25T12:48:24;18.70;78.40
23291;DHT22;11814;44.686;10.842;2023-04-25T12:50:51;18.80;77.90
23291;DHT22;11814;44.686;10.842;2023-04-25T12:53:22;18.70;77.30
23291;DHT22;11814;44.686;10.842;2023-04-25T12:55:48;18.60;77.40
23291;DHT22;11814;44.686;10.842;2023-04-25T12:58:15;18.60;77.20
23291;DHT22;11814;44.686;10.842;2023-04-25T13:00:41;18.60;77.10
23291;DHT22;11814;44.686;10.842;2023-04-25T13:03:07;18.60;77.10
23291;DHT22;11814;44.686;10.842;2023-04-25T13:05:33;18.80;76.80
23291;DHT22;11814;44.686;10.842;2023-04-25T13:07:59;18.80;76.50
23291;DHT22;11814;44.686;10.842;2023-04-25T13:10:25;18.90;76.90
23291;DHT22;11814;44.686;10.842;2023-04-25T13:12:51;19.10;76.40
23291;DHT22;11814;44.686;10.842;2023-04-25T13:15:17;19.10;76.00
23291;DHT22;11814;44.686;10.842;2023-04-25T13:17:42;19.10;76.20
23291;DHT22;11814;44.686;10.842;2023-04-25T13:20:09;19.10;76.50
23291;DHT22;11814;44.686;10.842;2023-04-25T13:22:36;19.20;76.70
23291;DHT22;11814;44.686;10.842;2023-04-25T13:25:03;19.20;77.10
23291;DHT22;11814;44.686;10.842;2023-04-25T13:27:29;19.10;77.20
23291;DHT22;11814;44.686;10.842;2023-04-25T13:29:55;18.90;77.60
23291;DHT22;11814;44.686;10.842;2023-04-25T13:32:21;18.90;78.10
23291;DHT22;11814;44.686;10.842;2023-04-25T13:34:47;18.90;78.50
23291;DHT22;11814;44.686;10.842;2023-04-25T13:37:13;18.90;79.30
23291;DHT22;11814;44.686;10.842;2023-04-25T13:39:38;18.90;79.20
23291;DHT22;11814;44.686;10.842;2023-04-25T13:42:04;18.80;79.80
23291;DHT22;11814;44.686;10.842;2023-04-25T13:44:30;18.70;80.20
23291;DHT22;11814;44.686;10.842;2023-04-25T13:46:55;18.60;80.90
23291;DHT22;11814;44.686;10.842;2023-04-25T13:49:21;18.60;81.10
23291;DHT22;11814;44.686;10.842;2023-04-25T13:51:48;18.50;81.10
23291;DHT22;11814;44.686;10.842;2023-04-25T13:54:14;18.40;81.40
23291;DHT22;11814;44.686;10.842;2023-04-25T13:56:40;18.40;81.80
23291;DHT22;11814;44.686;10.842;2023-04-25T13:59:07;18.50;82.80
23291;DHT22;11814;44.686;10.842;2023-04-25T14:01:33;18.60;83.00
23291;DHT22;11814;44.686;10.842;2023-04-25T14:04:03;18.70;83.00
23291;DHT22;11814;44.686;10.842;2023-04-25T14:06:30;18.60;82.70
23291;DHT22;11814;44.686;10.842;2023-04-25T14:08:56;18.50;82.80
23291;DHT22;11814;44.686;10.842;2023-04-25T14:11:22;18.40;82.90
23291;DHT22;11814;44.686;10.842;2023-04-25T14:13:48;18.30;82.80
23291;DHT22;11814;44.686;10.842;2023-04-25T14:16:15;18.30;83.90
23291;DHT22;11814;44.686;10.842;2023-04-25T14:18:41;18.20;83.40
23291;DHT22;11814;44.686;10.842;2023-04-25T14:21:06;18.10;84.10
23291;DHT22;11814;44.686;10.842;2023-04-25T14:23:32;18.10;84.40
23291;DHT22;11814;44.686;10.842;2023-04-25T14:25:58;18.10;85.00
23291;DHT22;11814;44.686;10.842;2023-04-25T14:28:24;18.00;84.90
23291;DHT22;11814;44.686;10.842;2023-04-25T14:30:49;18.00;85.10
23291;DHT22;11814;44.686;10.842;2023-04-25T14:33:15;17.90;85.10
23291;DHT22;11814;44.686;10.842;2023-04-25T14:35:41;17.80;85.40
23291;DHT22;11814;44.686;10.842;2023-04-25T14:38:07;17.70;85.70
23291;DHT22;11814;44.686;10.842;2023-04-25T14:40:33;17.70;86.20
23291;DHT22;11814;44.686;10.842;2023-04-25T14:42:59;17.70;86.30
23291;DHT22;11814;44.686;10.842;2023-04-25T14:45:25;17.70;86.60
23291;DHT22;11814;44.686;10.842;2023-04-25T14:47:50;17.80;86.70
23291;DHT22;11814;44.686;10.842;2023-04-25T14:50:16;18.00;86.80
23291;DHT22;11814;44.686;10.842;2023-04-25T14:52:42;18.10;86.20
23291;DHT22;11814;44.686;10.842;2023-04-25T14:55:08;18.20;86.10
23291;DHT22;11814;44.686;10.842;2023-04-25T14:57:35;18.20;85.70
23291;DHT22;11814;44.686;10.842;2023-04-25T15:00:01;18.20;85.70
23291;DHT22;11814;44.686;10.842;2023-04-25T15:02:27;18.00;85.50
23291;DHT22;11814;44.686;10.842;2023-04-25T15:04:53;17.90;85.70
23291;DHT22;11814;44.686;10.842;2023-04-25T15:07:21;17.80;86.00
23291;DHT22;11814;44.686;10.842;2023-04-25T15:09:47;17.70;86.40
23291;DHT22;11814;44.686;10.842;2023-04-25T15:12:13;17.70;86.80
23291;DHT22;11814;44.686;10.842;2023-04-25T15:14:40;17.70;86.70
23291;DHT22;11814;44.686;10.842;2023-04-25T15:17:06;17.60;86.70
23291;DHT22;11814;44.686;10.842;2023-04-25T15:19:32;17.60;87.00
23291;DHT22;11814;44.686;10.842;2023-04-25T15:21:58;17.50;87.50